Time;durP1;ratioP1;P1;durP2;ratioP2;P2;SDS_P1;SDS_P2;PMS_P1;PMS_P2;Temp;Humidity;BMP_temperature;BMP_pressure;BME280_temperature;BME280_humidity;BME280_pressure;Samples;Min_cycle;Max_cycle;Signal;HPM_P1;HPM_P2
2022/10/19 05:26:56;;;;;;;13.43;9.95;;;;;;;6.90;100.00;100052.22;1677105;82;21186;-38
2022/10/19 05:29:23;;;;;;;17.02;10.50;;;;;;;7.05;100.00;100043.69;1657581;86;21114;-38
2022/10/19 05:31:49;;;;;;;17.42;10.28;;;;;;;7.15;100.00;100044.23;1657497;85;21668;-38
2022/10/19 05:34:16;;;;;;;15.65;9.33;;;;;;;7.26;100.00;100041.73;1658090;84;21090;-38
2022/10/19 05:36:43;;;;;;;13.08;9.05;;;;;;;7.37;100.00;100049.22;1665676;85;21707;-38
2022/10/19 05:39:18;;;;;;;14.58;9.13;;;;;;;7.49;100.00;100029.36;1665363;85;21092;-38
2022/10/19 05:41:46;;;;;;;17.20;8.65;;;;;;;7.57;100.00;100030.28;1666723;85;21003;-38
2022/10/19 05:44:18;;;;;;;13.15;9.38;;;;;;;7.64;100.00;100035.54;1650052;85;21081;-39
2022/10/19 05:46:45;;;;;;;11.03;8.25;;;;;;;7.70;100.00;100032.11;1661412;86;21062;-38
2022/10/19 05:49:11;;;;;;;11.83;6.45;;;;;;;7.76;100.00;100026.94;1659354;85;21077;-40
2022/10/19 05:51:38;;;;;;;8.63;6.10;;;;;;;7.81;100.00;100019.17;1655845;85;21022;-38
2022/10/19 05:54:06;;;;;;;9.70;5.72;;;;;;;7.90;100.00;100019.25;1669903;85;21430;-37
2022/10/19 05:56:33;;;;;;;8.30;5.80;;;;;;;8.01;100.00;100003.25;1676067;85;21070;-39
2022/10/19 05:59:02;;;;;;;9.73;5.72;;;;;;;8.14;100.00;99999.84;1656701;85;21399;-39
2022/10/19 06:01:29;;;;;;;7.08;5.17;;;;;;;8.27;100.00;99999.45;1649633;85;21003;-38
2022/10/19 06:03:58;;;;;;;12.58;6.10;;;;;;;8.40;100.00;99992.16;1649394;85;20979;-39
2022/10/19 06:06:25;;;;;;;10.10;5.53;;;;;;;8.56;100.00;99984.41;1658771;85;21074;-39
2022/10/19 06:08:52;;;;;;;7.20;5.60;;;;;;;8.70;100.00;99981.42;1651970;86;21022;-39
2022/10/19 06:11:23;;;;;;;9.85;5.33;;;;;;;8.83;100.00;99975.35;1646694;86;20986;-39
2022/10/19 06:13:50;;;;;;;14.55;7.75;;;;;;;8.92;100.00;99964.91;1641081;87;21006;-38
2022/10/19 06:16:18;;;;;;;6.92;5.47;;;;;;;8.96;100.00;99953.63;1644913;86;21096;-38
2022/10/19 06:18:46;;;;;;;8.88;4.75;;;;;;;8.97;100.00;99946.22;1628033;85;21000;-38
2022/10/19 06:21:16;;;;;;;13.05;5.83;;;;;;;9.01;100.00;99949.72;1637952;86;21584;-38
2022/10/19 06:23:43;;;;;;;7.50;4.83;;;;;;;9.08;100.00;99954.50;1665623;85;20987;-38
2022/10/19 06:26:11;;;;;;;7.92;5.17;;;;;;;9.19;100.00;99967.99;1665555;85;21058;-38
2022/10/19 06:28:39;;;;;;;6.65;5.55;;;;;;;9.35;100.00;99988.89;1667289;85;21018;-38
2022/10/19 06:31:06;;;;;;;15.88;5.40;;;;;;;9.52;100.00;99994.55;1654691;85;21054;-38
2022/10/19 06:33:33;;;;;;;11.60;5.55;;;;;;;9.71;100.00;99987.55;1657344;85;20994;-39
2022/10/19 06:36:12;;;;;;;7.87;5.40;;;;;;;9.86;100.00;99987.98;1653206;86;21090;-38
2022/10/19 06:38:39;;;;;;;10.35;5.50;;;;;;;9.98;100.00;99984.03;1655742;85;21536;-39
2022/10/19 06:41:06;;;;;;;7.03;4.60;;;;;;;10.09;100.00;99966.58;1656920;85;21063;-38
2022/10/19 06:43:33;;;;;;;8.13;5.95;;;;;;;10.21;100.00;99973.94;1661682;85;20994;-38
2022/10/19 06:46:07;;;;;;;7.72;5.10;;;;;;;10.32;100.00;99973.47;1657258;85;21052;-39
2022/10/19 06:48:34;;;;;;;7.80;4.47;;;;;;;10.47;100.00;99967.31;1648884;85;21010;-38
2022/10/19 06:51:03;;;;;;;11.70;5.33;;;;;;;10.63;99.92;99968.98;1602272;87;21615;-38
2022/10/19 06:53:33;;;;;;;9.63;4.83;;;;;;;10.76;97.85;99968.02;1649098;86;20994;-39
2022/10/19 06:55:59;;;;;;;11.90;5.10;;;;;;;10.86;95.08;99953.15;1616119;87;21074;-37
2022/10/19 06:58:26;;;;;;;13.93;5.35;;;;;;;10.97;94.00;99943.92;1651897;86;21411;-38
2022/10/19 07:00:57;;;;;;;9.18;4.78;;;;;;;11.07;92.53;99950.36;1652063;86;21062;-38
2022/10/19 07:03:25;;;;;;;8.03;4.83;;;;;;;11.18;91.77;99957.69;1667197;85;21518;-39
2022/10/19 07:05:56;;;;;;;10.38;5.33;;;;;;;11.30;89.98;99951.48;1666976;85;21125;-38
2022/10/19 07:08:26;;;;;;;8.20;5.03;;;;;;;11.40;88.44;99936.12;1644819;85;21042;-38
2022/10/19 07:11:00;;;;;;;8.03;4.87;;;;;;;11.52;87.13;99934.28;1656801;85;21641;-38
2022/10/19 07:13:27;;;;;;;6.75;4.97;;;;;;;11.63;86.23;99932.42;1658365;86;21013;-38
2022/10/19 07:16:11;;;;;;;10.32;4.50;;;;;;;11.76;85.51;99927.92;1665740;86;21617;-38
2022/10/19 07:18:39;;;;;;;7.22;5.03;;;;;;;11.90;84.10;99930.00;1667533;85;21472;-38
2022/10/19 07:21:12;;;;;;;6.87;4.25;;;;;;;12.02;81.23;99919.37;1665552;85;21049;-38
2022/10/19 07:23:40;;;;;;;9.05;5.40;;;;;;;12.09;80.67;99910.53;1660455;86;21016;-38
2022/10/19 07:26:11;;;;;;;14.18;4.87;;;;;;;12.19;80.29;99913.92;1666306;86;21553;-38
2022/10/19 07:28:40;;;;;;;12.58;5.47;;;;;;;12.31;79.18;99903.27;1626419;87;21031;-39
2022/10/19 07:31:09;;;;;;;13.62;5.40;;;;;;;12.40;78.35;99904.88;1666683;86;21058;-38
2022/10/19 07:33:36;;;;;;;9.10;5.85;;;;;;;12.52;78.10;99899.47;1629239;87;21478;-38
2022/10/19 07:36:05;;;;;;;6.28;4.90;;;;;;;12.63;77.20;99891.44;1667023;85;21069;-38
2022/10/19 07:38:32;;;;;;;9.58;5.05;;;;;;;12.71;76.01;99896.15;1628319;87;21541;-39
2022/10/19 07:41:05;;;;;;;9.58;4.97;;;;;;;12.78;74.95;99887.28;1666515;86;21118;-38
2022/10/19 07:43:32;;;;;;;8.23;5.28;;;;;;;12.88;75.00;99884.95;1669476;85;21067;-38
2022/10/19 07:46:01;;;;;;;10.43;5.20;;;;;;;13.02;74.40;99893.91;1668311;85;21114;-48
2022/10/19 07:48:27;;;;;;;9.30;5.45;;;;;;;13.12;73.18;99878.87;1667023;85;21050;-38
2022/10/19 07:50:54;;;;;;;11.45;5.47;;;;;;;13.21;72.27;99875.65;1628099;87;21742;-39
2022/10/19 07:53:21;;;;;;;8.60;5.83;;;;;;;13.27;71.69;99873.36;1618524;88;21052;-47
2022/10/19 07:55:48;;;;;;;11.83;5.60;;;;;;;13.34;71.41;99879.41;1617135;89;21143;-47
2022/10/19 07:58:16;;;;;;;9.15;5.67;;;;;;;13.39;71.05;99882.79;1611467;88;21123;-39
2022/10/19 08:00:42;;;;;;;9.38;5.28;;;;;;;13.46;70.66;99883.98;1613093;88;21115;-47
2022/10/19 08:03:09;;;;;;;7.95;4.90;;;;;;;13.55;70.42;99877.23;1615067;88;21131;-38
2022/10/19 08:05:36;;;;;;;8.55;5.30;;;;;;;13.67;70.50;99875.27;1613039;89;21154;-38
2022/10/19 08:08:03;;;;;;;9.23;5.78;;;;;;;13.80;70.16;99884.22;1606422;88;21079;-39
2022/10/19 08:10:30;;;;;;;14.55;6.28;;;;;;;13.95;69.40;99883.48;1610810;88;21204;-39
2022/10/19 08:12:57;;;;;;;11.83;5.95;;;;;;;14.04;68.86;99873.64;1606559;88;21682;-39
2022/10/19 08:15:25;;;;;;;11.25;6.12;;;;;;;14.13;69.32;99879.15;1623580;86;21089;-39
2022/10/19 08:17:51;;;;;;;10.40;6.20;;;;;;;14.20;67.75;99879.87;1650643;86;21040;-38
2022/10/19 08:20:18;;;;;;;12.07;6.28;;;;;;;14.21;68.42;99875.06;1653139;86;21090;-40
2022/10/19 08:22:45;;;;;;;8.03;6.00;;;;;;;14.24;67.86;99882.42;1657979;85;21778;-37
2022/10/19 08:25:12;;;;;;;9.75;5.65;;;;;;;14.27;67.65;99876.24;1658365;86;21402;-39
2022/10/19 08:27:39;;;;;;;14.35;6.45;;;;;;;14.32;68.22;99873.93;1662489;85;20988;-40
2022/10/19 08:30:07;;;;;;;14.85;6.22;;;;;;;14.37;67.15;99868.09;1662822;85;21024;-41
2022/10/19 08:32:34;;;;;;;12.50;6.55;;;;;;;14.41;67.57;99866.72;1672206;84;21513;-48
2022/10/19 08:35:01;;;;;;;9.60;6.78;;;;;;;14.51;67.78;99858.62;1658836;85;21056;-48
2022/10/19 08:37:27;;;;;;;12.82;7.15;;;;;;;14.63;67.51;99868.00;1655892;85;20994;-48
2022/10/19 08:39:54;;;;;;;11.55;6.62;;;;;;;14.79;66.65;99863.25;1661348;85;21605;-48
2022/10/19 08:42:30;;;;;;;16.15;7.87;;;;;;;14.88;66.19;99857.73;1665243;85;21051;-48
2022/10/19 08:45:34;;;;;;;11.53;7.75;;;;;;;14.94;65.47;99859.36;1663391;84;21110;-40
2022/10/19 08:48:31;;;;;;;13.35;7.20;;;;;;;14.93;65.04;99847.09;1653427;86;21015;-39
2022/10/19 08:50:58;;;;;;;13.22;8.00;;;;;;;14.96;65.17;99852.27;1641423;86;21081;-40
2022/10/19 08:53:56;;;;;;;13.48;7.72;;;;;;;15.06;65.93;99837.52;1656153;85;21026;-48
2022/10/19 08:56:35;;;;;;;12.18;8.15;;;;;;;15.19;64.94;99852.59;1624883;86;21395;-48
2022/10/19 08:59:35;;;;;;;26.30;8.60;;;;;;;15.28;63.94;99836.52;1655757;85;20998;-39
2022/10/19 09:02:18;;;;;;;58.85;10.45;;;;;;;15.34;64.23;99840.30;1655719;85;21065;-40
2022/10/19 09:04:56;;;;;;;22.05;9.20;;;;;;;15.47;63.77;99840.83;1624540;86;21027;-39
2022/10/19 09:07:31;;;;;;;15.78;9.28;;;;;;;15.54;62.81;99852.07;1646157;85;21048;-47
2022/10/19 09:10:27;;;;;;;17.00;9.10;;;;;;;15.42;62.81;99836.13;1650299;86;21107;-47
2022/10/19 09:13:35;;;;;;;33.28;9.50;;;;;;;15.30;63.12;99839.10;1651844;85;20985;-47
2022/10/19 09:16:02;;;;;;;30.70;10.13;;;;;;;15.23;63.61;99841.49;1650516;85;21634;-47
2022/10/19 09:18:32;;;;;;;13.93;9.18;;;;;;;15.17;64.07;99834.61;1646308;86;20986;-39
2022/10/19 09:21:20;;;;;;;14.90;9.20;;;;;;;15.14;63.98;99838.20;1620345;88;21631;-40
2022/10/19 09:24:08;;;;;;;15.13;8.50;;;;;;;15.05;64.38;99837.11;1628929;87;20997;-38
2022/10/19 09:26:40;;;;;;;16.85;9.80;;;;;;;14.98;64.69;99833.36;1602204;86;21060;-39
2022/10/19 09:29:18;;;;;;;22.85;10.05;;;;;;;14.97;65.11;99839.54;1625103;86;20986;-47
2022/10/19 09:31:44;;;;;;;15.98;9.50;;;;;;;14.96;64.77;99841.73;1641834;85;21063;-48
2022/10/19 09:34:22;;;;;;;21.45;10.10;;;;;;;14.90;65.05;99837.06;1659607;84;21137;-48
2022/10/19 09:36:52;;;;;;;17.35;10.30;;;;;;;14.86;64.70;99837.17;1655167;85;21445;-39
2022/10/19 09:39:19;;;;;;;19.05;9.78;;;;;;;14.82;65.12;99837.68;1657593;85;21058;-48
2022/10/19 09:41:50;;;;;;;22.32;8.93;;;;;;;14.80;64.84;99838.18;1657450;85;21023;-48
2022/10/19 09:44:17;;;;;;;15.78;9.20;;;;;;;14.76;65.05;99832.56;1659942;85;21064;-47
2022/10/19 09:47:04;;;;;;;21.12;9.70;;;;;;;14.74;65.28;99825.17;1648827;86;21033;-43
2022/10/19 09:49:46;;;;;;;15.60;9.78;;;;;;;14.77;65.83;99827.70;1650005;85;21081;-48
2022/10/19 09:52:34;;;;;;;15.97;9.93;;;;;;;14.87;65.14;99828.36;1653675;86;21618;-39
2022/10/19 09:55:17;;;;;;;16.27;10.05;;;;;;;14.98;65.24;99821.05;1653839;85;21608;-39
2022/10/19 09:57:46;;;;;;;19.55;12.00;;;;;;;15.12;64.60;99824.19;1641187;86;21047;-39
2022/10/19 10:00:21;;;;;;;22.07;9.95;;;;;;;15.23;64.01;99825.68;1656775;85;21045;-40
2022/10/19 10:02:53;;;;;;;19.70;10.98;;;;;;;15.26;64.16;99811.13;1662840;85;21628;-40
2022/10/19 10:05:35;;;;;;;23.73;9.68;;;;;;;15.32;64.05;99809.64;1664199;85;21082;-48
2022/10/19 10:08:03;;;;;;;37.05;11.00;;;;;;;15.45;64.12;99809.70;1663891;86;21495;-39
2022/10/19 10:10:37;;;;;;;19.85;10.80;;;;;;;15.58;63.74;99808.91;1657432;85;21021;-47
2022/10/19 10:13:03;;;;;;;20.20;10.53;;;;;;;15.68;63.47;99802.05;1681587;84;21065;-48
2022/10/19 10:15:42;;;;;;;22.55;9.90;;;;;;;15.83;63.30;99809.98;1635573;87;21074;-40
2022/10/19 10:18:13;;;;;;;22.20;10.90;;;;;;;16.02;62.98;99800.20;1619864;88;21043;-48
2022/10/19 10:21:02;;;;;;;19.73;10.55;;;;;;;16.20;62.43;99795.68;1660409;85;21866;-47
2022/10/19 10:23:35;;;;;;;17.32;10.58;;;;;;;16.36;61.42;99798.26;1665299;86;21541;-47
2022/10/19 10:26:01;;;;;;;19.35;9.73;;;;;;;16.42;60.80;99795.42;1665042;86;21684;-47
2022/10/19 10:28:30;;;;;;;30.17;16.35;;;;;;;16.53;61.00;99796.41;1653859;85;21073;-47
2022/10/19 10:31:07;;;;;;;23.12;11.85;;;;;;;16.79;60.58;99792.92;1664149;86;21099;-40
2022/10/19 10:33:36;;;;;;;28.87;13.30;;;;;;;17.09;60.06;99792.34;1666967;86;21030;-47
2022/10/19 10:36:07;;;;;;;19.73;11.68;;;;;;;17.25;59.02;99786.06;1665738;86;21130;-47
2022/10/19 10:38:41;;;;;;;21.10;12.10;;;;;;;17.28;59.12;99785.97;1662448;85;21017;-38
2022/10/19 10:41:16;;;;;;;25.70;13.48;;;;;;;17.23;59.60;99773.37;1656929;85;21053;-48
2022/10/19 10:43:57;;;;;;;27.15;15.40;;;;;;;17.13;59.37;99781.22;1660615;86;20990;-38
2022/10/19 10:46:26;;;;;;;24.00;14.73;;;;;;;16.94;59.94;99769.11;1663592;85;21026;-39
2022/10/19 10:48:58;;;;;;;27.35;13.62;;;;;;;16.78;60.52;99774.03;1637620;86;20997;-47
2022/10/19 10:51:46;;;;;;;27.73;15.50;;;;;;;16.70;60.72;99768.12;1654266;86;21080;-41
2022/10/19 10:54:24;;;;;;;33.88;16.62;;;;;;;16.59;59.99;99770.26;1655809;85;21612;-49
2022/10/19 10:57:04;;;;;;;26.80;16.62;;;;;;;16.40;60.72;99776.11;1664734;85;21605;-48
2022/10/19 10:59:53;;;;;;;31.12;14.18;;;;;;;16.25;61.00;99767.38;1657946;85;21101;-48
2022/10/19 11:02:45;;;;;;;19.45;12.88;;;;;;;16.11;61.29;99769.10;1653353;86;21078;-40
2022/10/19 11:05:32;;;;;;;31.60;13.48;;;;;;;15.97;62.15;99764.72;1654753;85;21076;-46
2022/10/19 11:08:25;;;;;;;25.92;14.35;;;;;;;15.82;63.25;99767.80;1645420;85;21054;-47
2022/10/19 11:11:18;;;;;;;33.20;16.32;;;;;;;15.59;63.88;99777.67;1652914;85;21102;-47
2022/10/19 11:13:58;;;;;;;27.52;15.53;;;;;;;15.29;65.07;99789.94;1654562;85;21611;-48
2022/10/19 11:16:36;;;;;;;39.05;19.05;;;;;;;14.98;66.19;99789.90;1656276;86;21022;-48
2022/10/19 11:19:26;;;;;;;30.57;19.30;;;;;;;14.72;67.30;99802.39;1667267;85;21545;-39
2022/10/19 11:22:28;;;;;;;31.48;19.07;;;;;;;14.46;68.55;99801.69;1661189;85;21050;-48
2022/10/19 11:25:00;;;;;;;31.85;19.10;;;;;;;14.17;69.94;99808.48;1665993;85;21528;-48
2022/10/19 11:27:52;;;;;;;35.33;19.35;;;;;;;13.90;71.51;99816.96;1663588;85;21032;-39
2022/10/19 11:30:22;;;;;;;33.35;20.08;;;;;;;13.69;72.83;99815.20;1657759;86;21060;-39
2022/10/19 11:33:15;;;;;;;34.30;18.27;;;;;;;13.49;73.83;99823.47;1641795;86;21037;-48
2022/10/19 11:35:51;;;;;;;36.42;19.42;;;;;;;13.36;75.04;99816.73;1651311;86;21631;-39
2022/10/19 11:38:26;;;;;;;33.88;18.85;;;;;;;13.20;76.13;99818.73;1637351;86;21638;-39
2022/10/19 11:41:45;;;;;;;28.45;18.45;;;;;;;13.07;77.58;99813.73;1666253;86;21062;-48
2022/10/19 11:44:29;;;;;;;40.03;19.87;;;;;;;12.94;78.83;99810.02;1652532;86;21676;-48
2022/10/19 11:47:36;;;;;;;31.82;19.05;;;;;;;12.79;80.70;99810.27;1652712;86;21092;-46
2022/10/19 11:50:23;;;;;;;33.53;19.65;;;;;;;12.65;82.91;99810.50;1652360;85;21617;-39
2022/10/19 11:53:23;;;;;;;30.60;19.17;;;;;;;12.49;84.62;99802.45;1659247;86;21028;-48
2022/10/19 11:56:20;;;;;;;32.65;18.50;;;;;;;12.39;85.53;99800.84;1656251;86;21037;-39
2022/10/19 11:58:55;;;;;;;25.37;16.87;;;;;;;12.35;86.12;99788.23;1667704;85;21387;-39
2022/10/19 12:01:42;;;;;;;25.82;17.27;;;;;;;12.35;86.44;99788.66;1646811;87;21657;-39
2022/10/19 12:04:22;;;;;;;27.07;17.07;;;;;;;12.36;86.42;99797.84;1635781;86;21506;-46
2022/10/19 12:06:57;;;;;;;27.45;16.07;;;;;;;12.37;86.61;99800.88;1639752;86;21593;-47
2022/10/19 12:09:39;;;;;;;26.35;17.65;;;;;;;12.35;86.93;99800.45;1645880;87;21066;-47
2022/10/19 12:12:26;;;;;;;28.07;17.40;;;;;;;12.33;87.21;99789.13;1647704;87;21070;-47
2022/10/19 12:14:58;;;;;;;28.30;16.65;;;;;;;12.33;87.95;99795.25;1647886;86;21781;-39
2022/10/19 12:17:28;;;;;;;27.83;19.60;;;;;;;12.29;88.60;99800.10;1646959;87;21068;-40
2022/10/19 12:19:58;;;;;;;34.45;19.75;;;;;;;12.23;89.36;99799.78;1648074;87;21111;-47
2022/10/19 12:22:28;;;;;;;45.43;24.30;;;;;;;12.18;90.23;99800.29;1647986;87;21099;-47
2022/10/19 12:24:57;;;;;;;43.48;22.35;;;;;;;12.14;90.79;99781.55;1647382;87;21677;-47
2022/10/19 12:27:33;;;;;;;38.40;22.67;;;;;;;12.10;91.60;99790.33;1648630;86;21130;-38
2022/10/19 12:30:13;;;;;;;36.15;21.17;;;;;;;12.05;93.49;99790.84;1651536;87;21647;-47
2022/10/19 12:33:17;;;;;;;29.75;19.20;;;;;;;11.95;95.53;99790.56;1652467;87;21060;-46
2022/10/19 12:36:01;;;;;;;25.62;16.45;;;;;;;11.86;97.31;99785.44;1652367;87;21071;-41
2022/10/19 12:39:00;;;;;;;25.45;16.45;;;;;;;11.79;99.52;99795.10;1645294;87;21072;-39
2022/10/19 12:41:41;;;;;;;27.82;16.60;;;;;;;11.70;100.00;99804.38;1627561;88;21581;-40
2022/10/19 12:44:28;;;;;;;26.50;18.23;;;;;;;11.62;100.00;99814.09;1628827;87;22248;-41
2022/10/19 12:47:02;;;;;;;27.20;17.65;;;;;;;11.55;100.00;99808.51;1615637;88;21065;-46
2022/10/19 12:49:35;;;;;;;29.82;19.20;;;;;;;11.49;100.00;99809.45;1600240;88;21093;-46
2022/10/19 12:52:01;;;;;;;36.13;21.73;;;;;;;11.45;100.00;99811.66;1601322;89;21070;-38
2022/10/19 12:54:31;;;;;;;32.48;19.45;;;;;;;11.41;100.00;99817.81;1674918;86;21042;-48
2022/10/19 12:57:00;;;;;;;28.12;18.85;;;;;;;11.38;100.00;99819.17;1659278;86;21046;-46
2022/10/19 12:59:32;;;;;;;32.15;21.15;;;;;;;11.34;100.00;99818.77;1645305;87;21109;-40
2022/10/19 13:02:00;;;;;;;33.15;20.62;;;;;;;11.31;100.00;99820.99;1654671;86;21591;-48
2022/10/19 13:04:31;;;;;;;31.25;21.93;;;;;;;11.27;100.00;99823.66;1663234;85;21052;-48
2022/10/19 13:07:04;;;;;;;32.45;21.45;;;;;;;11.24;100.00;99824.53;1660546;86;21097;-39
2022/10/19 13:09:43;;;;;;;37.17;22.93;;;;;;;11.23;100.00;99826.73;1659135;86;21321;-48
2022/10/19 13:12:20;;;;;;;33.50;21.15;;;;;;;11.21;100.00;99824.58;1668133;86;21041;-39
2022/10/19 13:14:59;;;;;;;45.50;27.05;;;;;;;11.21;100.00;99825.89;1674645;86;21109;-41
2022/10/19 13:17:49;;;;;;;42.35;27.35;;;;;;;11.21;100.00;99823.72;1675131;85;21061;-48
2022/10/19 13:20:24;;;;;;;31.05;21.42;;;;;;;11.19;100.00;99829.84;1674816;86;21125;-39
